Time;durP1;ratioP1;P1;durP2;ratioP2;P2;SDS_P1;SDS_P2;PMS_P1;PMS_P2;Temp;Humidity;BMP_temperature;BMP_pressure;BME280_temperature;BME280_humidity;BME280_pressure;Samples;Min_cycle;Max_cycle;Signal;HPM_P1;HPM_P2
2021/08/13 00:01:49;;;;;;;1.83;1.73;;;22.80;63.70;;;;;;4954963;28;20257;-75
2021/08/13 00:04:15;;;;;;;1.70;1.60;;;22.70;64.00;;;;;;4958298;28;20186;-74
2021/08/13 00:06:41;;;;;;;1.38;1.38;;;22.70;63.90;;;;;;4958319;28;20183;-75
2021/08/13 00:09:08;;;;;;;2.70;1.40;;;22.70;64.40;;;;;;4958068;28;20261;-75
2021/08/13 00:11:39;;;;;;;1.42;1.40;;;22.70;64.00;;;;;;4956088;28;20270;-75
2021/08/13 00:14:06;;;;;;;4.82;1.55;;;22.60;63.90;;;;;;4959143;28;20241;-75
2021/08/13 00:16:32;;;;;;;3.50;1.50;;;22.60;63.80;;;;;;4960637;28;20226;-75
2021/08/13 00:18:58;;;;;;;1.73;1.73;;;22.60;64.10;;;;;;4958947;28;20197;-75
2021/08/13 00:21:24;;;;;;;2.92;1.55;;;22.60;64.30;;;;;;4958336;28;20600;-75
2021/08/13 00:23:49;;;;;;;1.42;1.30;;;22.60;64.10;;;;;;4958934;28;20205;-75
2021/08/13 00:26:15;;;;;;;1.30;1.30;;;22.50;64.00;;;;;;4960530;28;20953;-74
2021/08/13 00:28:41;;;;;;;1.13;1.13;;;22.50;63.90;;;;;;4960213;28;20640;-74
2021/08/13 00:31:07;;;;;;;2.13;1.23;;;22.50;64.10;;;;;;4959994;28;20178;-74
2021/08/13 00:33:32;;;;;;;1.70;1.60;;;22.50;64.10;;;;;;4957702;28;20285;-73
2021/08/13 00:35:58;;;;;;;2.40;1.40;;;22.50;64.00;;;;;;4960770;28;20221;-73
2021/08/13 00:38:24;;;;;;;1.27;1.27;;;22.40;64.10;;;;;;4957510;28;20206;-73
2021/08/13 00:40:49;;;;;;;1.80;1.70;;;22.40;63.90;;;;;;4958696;28;20580;-73
2021/08/13 00:43:15;;;;;;;0.93;0.93;;;22.40;64.20;;;;;;4960550;28;20182;-75
2021/08/13 00:45:41;;;;;;;1.00;1.00;;;22.40;64.30;;;;;;4959678;28;20189;-75
2021/08/13 00:48:07;;;;;;;1.48;1.48;;;22.30;64.40;;;;;;4960000;28;20218;-75
2021/08/13 00:50:33;;;;;;;1.48;1.38;;;22.30;64.80;;;;;;4959651;28;20188;-75
2021/08/13 00:53:00;;;;;;;1.42;1.35;;;22.30;64.60;;;;;;4959294;28;20186;-75
2021/08/13 00:55:26;;;;;;;1.30;1.30;;;22.20;64.40;;;;;;4958833;28;20266;-76
2021/08/13 00:57:52;;;;;;;4.35;1.58;;;22.20;64.80;;;;;;4960053;28;20781;-76
2021/08/13 01:00:18;;;;;;;3.60;1.55;;;22.20;65.00;;;;;;4958163;28;20651;-74
2021/08/13 01:02:43;;;;;;;1.35;1.35;;;22.10;64.50;;;;;;4958467;28;20179;-73
2021/08/13 01:05:09;;;;;;;1.20;1.10;;;22.10;64.80;;;;;;4956863;28;20684;-73
2021/08/13 01:07:35;;;;;;;1.40;1.30;;;22.10;64.60;;;;;;4957970;28;20229;-74
2021/08/13 01:10:03;;;;;;;2.95;1.80;;;22.10;64.80;;;;;;4955698;28;20587;-75
2021/08/13 01:12:46;;;;;;;1.52;1.33;;;22.10;64.60;;;;;;4957842;28;20190;-74
2021/08/13 01:15:15;;;;;;;1.27;1.27;;;22.10;64.50;;;;;;4959635;28;20797;-74
2021/08/13 01:18:00;;;;;;;1.27;1.27;;;22.00;64.30;;;;;;4960006;28;20210;-75
2021/08/13 01:20:55;;;;;;;1.80;1.70;;;22.00;64.90;;;;;;4959855;28;20209;-75
2021/08/13 01:23:39;;;;;;;1.50;1.20;;;22.00;64.70;;;;;;4979878;28;20700;-75
2021/08/13 01:26:06;;;;;;;1.23;1.17;;;22.00;64.50;;;;;;4962319;28;20182;-75
2021/08/13 01:28:38;;;;;;;1.67;1.38;;;22.00;64.40;;;;;;4958987;28;20183;-75
2021/08/13 01:31:18;;;;;;;1.27;1.17;;;22.00;64.30;;;;;;4956986;28;20190;-74
2021/08/13 01:33:46;;;;;;;1.27;1.17;;;22.00;64.50;;;;;;4959096;28;20245;-74
2021/08/13 01:36:14;;;;;;;1.60;1.60;;;21.90;64.70;;;;;;4959986;28;20206;-75
2021/08/13 01:38:40;;;;;;;1.17;1.17;;;21.90;64.60;;;;;;4958813;28;20269;-75
2021/08/13 01:41:11;;;;;;;1.33;1.23;;;21.90;64.90;;;;;;4960763;28;20571;-74
2021/08/13 01:43:39;;;;;;;1.20;1.20;;;22.00;64.60;;;;;;4956379;28;20191;-75
2021/08/13 01:46:06;;;;;;;1.50;1.40;;;22.00;64.40;;;;;;4956457;28;20191;-74
2021/08/13 01:48:33;;;;;;;1.13;1.08;;;22.00;64.50;;;;;;4955996;28;20191;-74
2021/08/13 01:50:59;;;;;;;1.45;1.45;;;22.00;64.30;;;;;;4959152;28;20198;-75
2021/08/13 01:53:26;;;;;;;1.10;1.10;;;22.00;64.50;;;;;;4957556;28;20179;-74
2021/08/13 01:55:53;;;;;;;1.30;1.20;;;21.90;64.30;;;;;;4959191;28;20178;-74
2021/08/13 01:58:20;;;;;;;1.52;1.30;;;21.90;64.80;;;;;;4960613;28;20195;-74
2021/08/13 02:00:49;;;;;;;1.55;1.48;;;21.90;64.20;;;;;;4960768;28;20205;-74
2021/08/13 02:03:15;;;;;;;1.20;1.10;;;21.90;64.50;;;;;;4961053;28;20397;-74
2021/08/13 02:05:42;;;;;;;1.15;1.15;;;21.90;64.40;;;;;;4962096;28;20190;-74
2021/08/13 02:08:09;;;;;;;2.92;1.38;;;21.90;64.40;;;;;;4960859;28;20680;-74
2021/08/13 02:10:37;;;;;;;1.15;1.00;;;21.90;64.20;;;;;;4961573;28;20221;-74
2021/08/13 02:13:03;;;;;;;0.98;0.98;;;21.90;64.10;;;;;;4959333;28;20179;-74
2021/08/13 02:15:30;;;;;;;1.40;1.30;;;21.90;64.40;;;;;;4961157;28;20214;-74
2021/08/13 02:17:59;;;;;;;1.67;1.05;;;21.90;64.10;;;;;;4962117;28;20247;-74
2021/08/13 02:20:27;;;;;;;1.20;1.20;;;21.90;64.20;;;;;;4964001;28;20202;-74
2021/08/13 02:22:53;;;;;;;1.13;1.13;;;21.90;64.30;;;;;;4959543;28;20186;-75
2021/08/13 02:25:19;;;;;;;1.70;1.60;;;21.90;64.90;;;;;;4960235;28;20838;-74
2021/08/13 02:27:45;;;;;;;2.35;1.83;;;21.80;66.10;;;;;;4962766;28;20629;-76
2021/08/13 02:30:12;;;;;;;2.55;1.95;;;21.70;66.70;;;;;;4960613;28;20206;-73
2021/08/13 02:32:38;;;;;;;1.98;1.95;;;21.60;67.20;;;;;;4961046;28;21454;-75
2021/08/13 02:35:06;;;;;;;2.03;1.80;;;21.40;67.70;;;;;;4963137;28;20256;-75
2021/08/13 02:37:39;;;;;;;2.50;1.83;;;21.30;68.70;;;;;;4963668;28;20214;-75
2021/08/13 02:40:13;;;;;;;1.90;1.80;;;21.20;68.60;;;;;;4960676;28;20210;-75
2021/08/13 02:42:45;;;;;;;3.00;2.10;;;21.10;68.90;;;;;;4959893;28;20189;-75
2021/08/13 02:45:14;;;;;;;1.85;1.80;;;21.00;69.00;;;;;;4961536;28;20273;-74
2021/08/13 02:47:43;;;;;;;1.65;1.55;;;20.90;69.40;;;;;;4963648;28;20190;-74
2021/08/13 02:50:10;;;;;;;1.95;1.85;;;20.80;70.20;;;;;;4959939;28;20274;-74
2021/08/13 02:52:47;;;;;;;2.72;2.47;;;20.70;70.30;;;;;;4961148;28;20218;-74
2021/08/13 02:55:17;;;;;;;1.83;1.73;;;20.60;70.60;;;;;;4959364;28;20188;-74
2021/08/13 02:57:47;;;;;;;2.03;1.83;;;20.50;70.50;;;;;;4960529;28;20222;-74
2021/08/13 03:00:13;;;;;;;2.70;1.92;;;20.40;70.80;;;;;;4959467;28;20180;-74
2021/08/13 03:02:40;;;;;;;1.80;1.70;;;20.40;70.90;;;;;;4962854;28;20190;-74
2021/08/13 03:05:08;;;;;;;2.25;2.15;;;20.30;71.20;;;;;;4962745;28;20255;-73
2021/08/13 03:07:35;;;;;;;2.65;1.83;;;20.20;71.20;;;;;;4960117;28;20682;-73
2021/08/13 03:10:01;;;;;;;2.20;2.10;;;20.10;72.00;;;;;;4962407;28;20182;-74
2021/08/13 03:12:28;;;;;;;2.05;1.95;;;20.00;72.10;;;;;;4961145;28;20183;-74
2021/08/13 03:14:54;;;;;;;2.42;2.20;;;20.00;72.20;;;;;;4957465;28;20683;-73
2021/08/13 03:17:21;;;;;;;1.98;1.88;;;19.90;72.80;;;;;;4961445;28;20222;-75
2021/08/13 03:19:47;;;;;;;2.03;1.90;;;19.80;72.70;;;;;;4959975;28;20657;-75
2021/08/13 03:22:14;;;;;;;1.77;1.70;;;19.70;72.80;;;;;;4958811;28;20197;-76
2021/08/13 03:24:40;;;;;;;1.75;1.65;;;19.70;72.70;;;;;;4961601;28;20186;-76
2021/08/13 03:27:06;;;;;;;2.08;2.03;;;19.70;73.20;;;;;;4962527;28;20189;-75
2021/08/13 03:29:31;;;;;;;1.83;1.73;;;19.60;73.40;;;;;;4959338;28;20230;-75
2021/08/13 03:31:59;;;;;;;1.75;1.67;;;19.60;73.50;;;;;;4960713;28;20178;-75
2021/08/13 03:34:25;;;;;;;1.98;1.98;;;19.50;73.70;;;;;;4959024;28;20575;-72
2021/08/13 03:36:51;;;;;;;2.00;2.00;;;19.40;74.00;;;;;;4959661;28;20226;-75
2021/08/13 03:39:17;;;;;;;1.92;1.83;;;19.40;74.30;;;;;;4958926;28;20661;-76
2021/08/13 03:41:43;;;;;;;2.13;2.08;;;19.40;73.80;;;;;;4963706;28;20222;-75
2021/08/13 03:44:08;;;;;;;2.05;1.95;;;19.30;73.80;;;;;;4957229;28;20262;-75
2021/08/13 03:46:34;;;;;;;2.63;2.15;;;19.30;73.80;;;;;;4958401;28;20279;-75
2021/08/13 03:49:00;;;;;;;1.77;1.77;;;19.30;73.80;;;;;;4960488;28;20250;-73
2021/08/13 03:51:26;;;;;;;1.95;1.85;;;19.30;73.60;;;;;;4959388;28;20182;-76
2021/08/13 03:53:52;;;;;;;1.75;1.75;;;19.30;73.70;;;;;;4958864;28;20205;-75
2021/08/13 03:56:18;;;;;;;1.70;1.60;;;19.30;73.70;;;;;;4959486;28;20242;-75
2021/08/13 03:58:44;;;;;;;1.73;1.65;;;19.20;73.70;;;;;;4959785;28;20237;-76
2021/08/13 04:01:10;;;;;;;2.08;1.67;;;19.20;73.70;;;;;;4959273;28;20186;-75
2021/08/13 04:03:36;;;;;;;1.90;1.80;;;19.20;73.90;;;;;;4960294;28;20285;-76
2021/08/13 04:06:02;;;;;;;1.75;1.70;;;19.20;74.20;;;;;;4959591;28;20566;-75
2021/08/13 04:08:28;;;;;;;2.10;2.00;;;19.20;74.20;;;;;;4961596;28;20186;-75
2021/08/13 04:10:54;;;;;;;3.65;2.05;;;19.20;74.40;;;;;;4960793;28;20249;-76
2021/08/13 04:13:20;;;;;;;3.67;1.92;;;19.20;73.90;;;;;;4958671;28;20274;-75
2021/08/13 04:15:45;;;;;;;1.90;1.80;;;19.20;73.70;;;;;;4958303;28;20186;-75
2021/08/13 04:18:11;;;;;;;2.22;2.03;;;19.20;74.00;;;;;;4958743;28;20253;-75
2021/08/13 04:20:37;;;;;;;1.90;1.83;;;19.20;74.40;;;;;;4959393;28;20250;-76
2021/08/13 04:23:03;;;;;;;1.90;1.80;;;19.20;74.80;;;;;;4959055;28;21114;-76
2021/08/13 04:25:29;;;;;;;3.50;1.90;;;19.30;74.70;;;;;;4958199;28;20205;-75
2021/08/13 04:27:55;;;;;;;1.75;1.70;;;19.30;74.60;;;;;;4958921;28;20664;-76
2021/08/13 04:30:21;;;;;;;1.60;1.60;;;19.30;74.60;;;;;;4958312;28;20245;-75
2021/08/13 04:32:46;;;;;;;3.67;1.98;;;19.30;74.20;;;;;;4960597;28;20212;-76
2021/08/13 04:35:12;;;;;;;4.15;1.90;;;19.30;74.20;;;;;;4959073;28;20178;-75
2021/08/13 04:37:38;;;;;;;2.53;1.95;;;19.30;74.20;;;;;;4957669;28;20222;-75
2021/08/13 04:40:05;;;;;;;1.73;1.73;;;19.30;74.50;;;;;;4959370;28;20241;-75
2021/08/13 04:42:31;;;;;;;1.98;1.88;;;19.40;74.30;;;;;;4959511;28;20179;-75
2021/08/13 04:44:56;;;;;;;2.33;2.22;;;19.40;74.40;;;;;;4958678;28;20193;-75
2021/08/13 04:47:22;;;;;;;7.03;2.33;;;19.40;74.30;;;;;;4958806;28;20186;-75
2021/08/13 04:49:48;;;;;;;1.95;1.85;;;19.40;73.80;;;;;;4958206;28;20178;-75
2021/08/13 04:52:14;;;;;;;2.30;2.10;;;19.40;74.10;;;;;;4958338;28;20194;-73
2021/08/13 04:54:41;;;;;;;3.85;1.83;;;19.40;73.90;;;;;;4960966;28;20528;-73
2021/08/13 04:57:06;;;;;;;1.95;1.85;;;19.40;73.70;;;;;;4961139;28;20214;-73
2021/08/13 04:59:32;;;;;;;1.70;1.55;;;19.50;74.90;;;;;;4958766;28;20610;-73
2021/08/13 05:01:58;;;;;;;2.28;2.15;;;19.50;74.10;;;;;;4957539;28;20291;-73
2021/08/13 05:04:24;;;;;;;2.53;2.28;;;19.50;74.30;;;;;;4959511;28;20225;-73
2021/08/13 05:06:49;;;;;;;3.20;2.17;;;19.60;74.30;;;;;;4958496;28;20194;-74
2021/08/13 05:09:15;;;;;;;3.10;2.13;;;19.60;74.20;;;;;;4959702;28;20209;-73
2021/08/13 05:11:41;;;;;;;3.45;2.08;;;19.70;74.20;;;;;;4958972;28;20191;-73
2021/08/13 05:14:06;;;;;;;2.47;2.28;;;19.70;73.90;;;;;;4957052;28;20191;-73
2021/08/13 05:16:32;;;;;;;2.08;1.98;;;19.70;73.90;;;;;;4961525;28;20218;-73
2021/08/13 05:18:58;;;;;;;2.38;2.17;;;19.80;74.00;;;;;;4959161;28;20729;-73
2021/08/13 05:21:24;;;;;;;2.50;2.30;;;19.80;73.80;;;;;;4957246;28;20193;-71
2021/08/13 05:23:49;;;;;;;1.92;1.92;;;19.90;73.60;;;;;;4956354;28;20258;-72
2021/08/13 05:26:15;;;;;;;2.65;2.30;;;19.90;73.50;;;;;;4959014;28;20191;-72
2021/08/13 05:28:41;;;;;;;2.55;2.45;;;20.00;73.30;;;;;;4957936;28;20250;-73
2021/08/13 05:31:07;;;;;;;2.22;2.13;;;20.00;73.20;;;;;;4961137;28;20265;-72
2021/08/13 05:33:33;;;;;;;4.00;3.08;;;20.10;73.20;;;;;;4963053;28;20189;-71
2021/08/13 05:35:59;;;;;;;2.58;2.38;;;20.10;73.20;;;;;;4961848;28;20183;-72
2021/08/13 05:38:24;;;;;;;3.60;2.83;;;20.20;73.10;;;;;;4962502;28;20183;-72
2021/08/13 05:40:50;;;;;;;3.15;2.75;;;20.30;73.00;;;;;;4963978;28;20182;-74
2021/08/13 05:43:16;;;;;;;2.75;2.58;;;20.30;72.80;;;;;;4962633;28;20582;-74
2021/08/13 05:45:42;;;;;;;3.38;2.97;;;20.40;72.80;;;;;;4962916;28;20191;-73
2021/08/13 05:48:07;;;;;;;3.83;2.60;;;20.40;72.70;;;;;;4963330;28;20242;-74
2021/08/13 05:50:33;;;;;;;2.95;2.75;;;20.50;72.70;;;;;;4960537;28;20178;-73
2021/08/13 05:52:59;;;;;;;3.08;2.80;;;20.50;72.40;;;;;;4961399;28;20382;-74
2021/08/13 05:55:26;;;;;;;4.10;2.85;;;20.60;72.30;;;;;;4961053;28;20211;-73
2021/08/13 05:57:52;;;;;;;4.65;2.95;;;20.60;72.10;;;;;;4961367;28;20226;-73
2021/08/13 06:00:18;;;;;;;2.95;2.75;;;20.70;72.10;;;;;;4957787;28;20199;-73
2021/08/13 06:02:52;;;;;;;2.95;2.78;;;20.70;72.00;;;;;;4961357;28;20293;-73
2021/08/13 06:05:18;;;;;;;4.95;2.67;;;20.70;71.70;;;;;;4958176;28;20211;-74
2021/08/13 06:07:43;;;;;;;3.60;2.83;;;20.80;71.90;;;;;;4959422;28;20179;-74
2021/08/13 06:10:10;;;;;;;3.72;3.25;;;20.80;71.90;;;;;;4958398;28;20223;-73
2021/08/13 06:12:35;;;;;;;3.47;3.20;;;20.90;71.70;;;;;;4959470;28;20194;-74
2021/08/13 06:15:01;;;;;;;4.05;2.88;;;20.90;72.00;;;;;;4956598;28;20935;-74
2021/08/13 06:17:28;;;;;;;3.83;2.95;;;21.00;71.90;;;;;;4955641;28;20230;-74
2021/08/13 06:19:54;;;;;;;2.50;2.40;;;21.10;71.80;;;;;;4956922;28;20186;-74
2021/08/13 06:22:19;;;;;;;3.20;3.00;;;21.10;71.70;;;;;;4960364;28;20980;-73
2021/08/13 06:24:45;;;;;;;2.55;2.55;;;21.20;71.40;;;;;;4956699;28;20190;-74
2021/08/13 06:27:11;;;;;;;2.63;2.53;;;21.30;71.30;;;;;;4958924;28;20342;-74
2021/08/13 06:29:37;;;;;;;2.72;2.53;;;21.30;70.90;;;;;;4958799;28;20190;-74
2021/08/13 06:32:03;;;;;;;2.33;2.22;;;21.40;71.30;;;;;;4956937;28;20195;-73
2021/08/13 06:34:29;;;;;;;2.50;2.28;;;21.50;70.70;;;;;;4957264;28;20183;-73
2021/08/13 06:36:55;;;;;;;2.10;2.00;;;21.60;70.50;;;;;;4961807;28;20604;-74
2021/08/13 06:39:21;;;;;;;5.57;2.72;;;21.70;69.90;;;;;;4962187;28;20267;-74
2021/08/13 06:41:47;;;;;;;2.20;2.10;;;21.80;69.90;;;;;;4973682;28;20191;-74
2021/08/13 06:44:14;;;;;;;2.83;2.47;;;21.80;69.80;;;;;;4957028;28;20190;-73
2021/08/13 06:46:41;;;;;;;1.88;1.88;;;21.90;69.80;;;;;;4960437;28;20236;-73
2021/08/13 06:49:07;;;;;;;3.38;1.80;;;22.00;69.40;;;;;;4959921;28;20201;-73
2021/08/13 06:51:32;;;;;;;2.33;2.20;;;22.00;69.20;;;;;;4959731;28;20660;-73
2021/08/13 06:53:58;;;;;;;1.85;1.75;;;22.10;69.80;;;;;;4956418;28;20191;-73
2021/08/13 06:56:24;;;;;;;2.40;2.20;;;22.20;69.00;;;;;;4962357;28;20214;-73
2021/08/13 06:58:49;;;;;;;2.08;1.98;;;22.30;68.60;;;;;;4957726;28;20667;-73
2021/08/13 07:01:15;;;;;;;1.92;1.92;;;22.40;68.90;;;;;;4955758;28;20191;-73
2021/08/13 07:03:41;;;;;;;1.60;1.60;;;22.50;68.70;;;;;;4958914;28;20578;-73
2021/08/13 07:06:07;;;;;;;2.17;2.00;;;22.60;68.60;;;;;;4957931;28;20296;-74
2021/08/13 07:08:32;;;;;;;2.15;2.05;;;22.70;67.60;;;;;;4959412;28;20191;-73
2021/08/13 07:10:59;;;;;;;2.28;2.17;;;22.80;68.10;;;;;;4959478;28;20189;-73
2021/08/13 07:13:25;;;;;;;1.95;1.85;;;22.90;67.60;;;;;;4960748;28;20179;-73
2021/08/13 07:15:50;;;;;;;2.17;1.77;;;23.00;67.20;;;;;;4957307;28;20679;-73
2021/08/13 07:18:16;;;;;;;1.80;1.70;;;23.10;66.50;;;;;;4957965;28;20245;-73
2021/08/13 07:20:42;;;;;;;6.95;1.38;;;23.10;66.80;;;;;;4958965;28;20191;-74
2021/08/13 07:23:08;;;;;;;4.47;1.50;;;;;;;;;;4957370;28;20194;-73
2021/08/13 07:25:34;;;;;;;3.17;1.40;;;23.20;66.70;;;;;;4955725;28;20213;-73
2021/08/13 07:27:59;;;;;;;2.58;1.27;;;23.20;66.20;;;;;;4958527;28;20671;-74
2021/08/13 07:30:25;;;;;;;2.05;1.95;;;23.30;66.20;;;;;;4960592;28;20194;-74
2021/08/13 07:32:51;;;;;;;4.43;1.80;;;23.40;66.10;;;;;;4956474;28;20183;-74
2021/08/13 07:35:17;;;;;;;1.67;1.58;;;23.40;66.10;;;;;;4957614;28;20308;-73
2021/08/13 07:37:42;;;;;;;3.75;2.10;;;23.50;66.00;;;;;;4960063;28;20935;-73
2021/08/13 07:40:09;;;;;;;3.00;1.65;;;23.60;65.60;;;;;;4956161;28;20183;-73
2021/08/13 07:42:36;;;;;;;3.60;1.75;;;23.70;65.40;;;;;;4959008;28;20203;-72
2021/08/13 07:45:03;;;;;;;1.38;1.38;;;23.70;65.60;;;;;;4958958;28;20191;-74
2021/08/13 07:47:29;;;;;;;1.70;1.60;;;23.80;65.20;;;;;;4958747;28;20222;-74
2021/08/13 07:49:55;;;;;;;1.40;1.35;;;23.90;65.00;;;;;;4959759;28;20269;-71
2021/08/13 07:52:20;;;;;;;1.92;1.83;;;23.90;65.00;;;;;;4957575;28;20179;-73
2021/08/13 07:54:46;;;;;;;1.67;1.58;;;24.00;65.40;;;;;;4956810;28;20866;-74
2021/08/13 07:57:12;;;;;;;1.83;1.73;;;24.10;65.60;;;;;;4957149;28;20210;-75
2021/08/13 07:59:37;;;;;;;1.95;1.75;;;24.20;65.30;;;;;;4958550;28;20186;-75
2021/08/13 08:02:04;;;;;;;1.60;1.60;;;24.20;65.00;;;;;;4958687;28;20183;-75
2021/08/13 08:04:30;;;;;;;1.63;1.52;;;24.30;65.30;;;;;;4956087;28;20198;-76
2021/08/13 08:06:56;;;;;;;3.53;1.75;;;24.30;64.70;;;;;;4957359;28;20182;-75
2021/08/13 08:09:23;;;;;;;1.65;1.63;;;24.40;64.80;;;;;;4957822;28;20564;-75
2021/08/13 08:11:49;;;;;;;2.50;1.58;;;24.50;64.80;;;;;;4957989;28;20213;-75
2021/08/13 08:14:15;;;;;;;5.68;2.03;;;24.50;64.80;;;;;;4956694;28;20179;-75
2021/08/13 08:16:41;;;;;;;1.20;1.20;;;24.60;64.10;;;;;;4956002;28;20729;-75
2021/08/13 08:19:07;;;;;;;1.30;1.30;;;24.70;64.10;;;;;;4959103;28;20179;-74
2021/08/13 08:21:32;;;;;;;1.52;1.50;;;24.80;64.30;;;;;;4956780;28;20244;-74
2021/08/13 08:23:58;;;;;;;1.30;1.30;;;24.80;62.10;;;;;;4956670;28;20187;-75
2021/08/13 08:26:24;;;;;;;1.75;1.65;;;24.90;63.10;;;;;;4955374;28;20688;-75
2021/08/13 08:28:51;;;;;;;1.50;1.50;;;25.00;63.30;;;;;;4956403;28;20185;-74
2021/08/13 08:31:17;;;;;;;4.97;1.70;;;25.10;63.30;;;;;;4958209;28;20178;-75
2021/08/13 08:33:42;;;;;;;2.47;1.48;;;25.10;62.60;;;;;;4955808;28;20186;-75
2021/08/13 08:36:09;;;;;;;1.95;1.85;;;25.20;62.30;;;;;;4956538;28;20187;-75
2021/08/13 08:38:35;;;;;;;1.65;1.55;;;25.30;62.20;;;;;;4958118;28;20178;-75
2021/08/13 08:41:08;;;;;;;3.95;1.88;;;25.40;62.00;;;;;;4956587;28;20192;-75
2021/08/13 08:43:34;;;;;;;1.77;1.65;;;25.50;62.00;;;;;;4956661;28;20197;-74
2021/08/13 08:46:00;;;;;;;1.92;1.90;;;25.60;61.70;;;;;;4956482;28;20189;-75
2021/08/13 08:48:38;;;;;;;2.25;2.05;;;25.70;61.40;;;;;;4957965;28;20797;-75
2021/08/13 08:51:06;;;;;;;1.30;1.30;;;25.80;61.40;;;;;;4955888;28;20185;-75
2021/08/13 08:53:33;;;;;;;2.35;1.60;;;25.90;61.50;;;;;;4959837;28;20182;-74
2021/08/13 08:56:00;;;;;;;2.17;2.13;;;26.00;61.70;;;;;;4957238;28;20270;-74
2021/08/13 08:58:30;;;;;;;2.00;2.00;;;26.10;61.70;;;;;;4959482;28;20198;-74
2021/08/13 09:00:56;;;;;;;2.17;1.98;;;26.30;61.40;;;;;;4954635;28;20210;-74
2021/08/13 09:03:23;;;;;;;2.20;2.10;;;26.40;60.40;;;;;;4956011;28;20209;-75
2021/08/13 09:05:50;;;;;;;2.15;2.15;;;26.50;60.90;;;;;;4958748;28;20310;-75
2021/08/13 09:08:16;;;;;;;2.28;2.05;;;26.70;60.30;;;;;;4961424;28;20270;-75
2021/08/13 09:10:43;;;;;;;2.08;2.08;;;26.80;60.00;;;;;;4961363;28;20194;-75
2021/08/13 09:13:10;;;;;;;2.45;2.35;;;26.90;59.40;;;;;;4974754;28;20579;-75
2021/08/13 09:15:40;;;;;;;2.15;2.00;;;27.10;59.40;;;;;;4960887;28;20739;-75
2021/08/13 09:18:24;;;;;;;1.95;1.95;;;27.20;60.00;;;;;;4961640;28;20211;-75
2021/08/13 09:20:58;;;;;;;3.60;2.88;;;27.40;58.20;;;;;;4962324;28;20189;-75
2021/08/13 09:23:39;;;;;;;4.15;2.20;;;27.60;58.20;;;;;;4961790;28;20688;-75
2021/08/13 09:26:26;;;;;;;2.88;2.78;;;27.80;58.40;;;;;;4961805;28;20703;-75
2021/08/13 09:28:53;;;;;;;2.47;2.28;;;28.10;57.50;;;;;;4960645;28;20184;-75
2021/08/13 09:31:25;;;;;;;2.20;2.20;;;28.40;57.60;;;;;;4962657;28;20178;-75
2021/08/13 09:34:09;;;;;;;4.10;2.38;;;28.80;56.50;;;;;;4957995;28;20178;-75
2021/08/13 09:36:37;;;;;;;2.70;2.53;;;29.20;56.40;;;;;;4961361;28;20218;-75
2021/08/13 09:39:05;;;;;;;2.42;2.33;;;29.60;55.40;;;;;;4957121;28;20174;-76
2021/08/13 09:41:54;;;;;;;2.83;2.72;;;29.90;54.60;;;;;;4958880;28;20198;-78
2021/08/13 09:44:28;;;;;;;2.30;2.13;;;30.30;54.80;;;;;;4961667;28;20182;-74
2021/08/13 09:47:01;;;;;;;5.40;2.13;;;30.90;54.10;;;;;;4958601;28;20194;-73
2021/08/13 09:49:29;;;;;;;2.38;2.22;;;31.60;53.50;;;;;;4958136;28;20578;-72
2021/08/13 09:51:55;;;;;;;3.03;2.85;;;32.20;51.70;;;;;;4958054;28;20316;-73
2021/08/13 09:54:28;;;;;;;2.45;2.25;;;32.80;51.70;;;;;;4957850;28;20183;-72
2021/08/13 09:57:09;;;;;;;2.55;2.45;;;33.40;49.70;;;;;;4958994;28;20222;-73
2021/08/13 09:59:35;;;;;;;2.28;2.28;;;34.10;49.80;;;;;;4958134;28;20701;-73
2021/08/13 10:02:15;;;;;;;2.80;2.70;;;35.00;50.00;;;;;;4960749;28;20194;-73
2021/08/13 10:04:42;;;;;;;2.97;2.50;;;35.80;48.80;;;;;;4959398;28;20194;-74
2021/08/13 10:07:08;;;;;;;2.35;2.25;;;36.50;46.80;;;;;;4958046;28;20199;-74
2021/08/13 10:09:34;;;;;;;2.78;2.67;;;37.00;47.20;;;;;;4960459;28;20186;-74
2021/08/13 10:12:05;;;;;;;2.97;2.78;;;37.40;46.00;;;;;;4958667;28;20186;-75
2021/08/13 10:14:42;;;;;;;2.42;2.40;;;37.80;45.20;;;;;;4958834;28;20183;-75
2021/08/13 10:17:13;;;;;;;2.90;2.75;;;38.20;45.40;;;;;;4955595;28;20769;-75
2021/08/13 10:19:50;;;;;;;2.70;2.55;;;38.70;45.30;;;;;;4960602;28;20311;-75
2021/08/13 10:22:18;;;;;;;2.67;2.58;;;39.10;43.60;;;;;;4958632;28;20174;-75
2021/08/13 10:24:46;;;;;;;3.53;2.90;;;39.20;45.00;;;;;;4957630;28;20202;-75
2021/08/13 10:27:14;;;;;;;2.90;2.80;;;39.40;45.50;;;;;;4959101;28;20182;-75
2021/08/13 10:29:41;;;;;;;2.47;2.47;;;39.60;46.20;;;;;;4956402;28;20214;-74
2021/08/13 10:32:08;;;;;;;3.17;3.00;;;40.00;44.40;;;;;;4958715;28;20821;-74
2021/08/13 10:34:34;;;;;;;2.80;2.63;;;40.20;42.20;;;;;;4960288;28;20201;-75
2021/08/13 10:37:07;;;;;;;2.60;2.60;;;40.50;44.00;;;;;;4959307;28;20293;-75
2021/08/13 10:39:37;;;;;;;2.58;2.58;;;40.80;42.50;;;;;;4959840;28;20671;-74
2021/08/13 10:42:05;;;;;;;3.20;3.10;;;41.20;41.70;;;;;;4958952;28;20204;-75
2021/08/13 10:44:35;;;;;;;3.28;3.00;;;41.60;43.20;;;;;;4957764;28;20686;-75
2021/08/13 10:47:09;;;;;;;2.90;2.90;;;41.90;41.00;;;;;;4957659;28;20190;-75
2021/08/13 10:49:37;;;;;;;2.65;2.45;;;42.30;41.50;;;;;;4962287;28;20220;-75
2021/08/13 10:52:05;;;;;;;3.10;2.90;;;42.60;42.40;;;;;;4957342;28;20178;-76
2021/08/13 10:54:43;;;;;;;2.58;2.50;;;42.70;40.80;;;;;;4958589;28;20201;-75
2021/08/13 10:57:10;;;;;;;2.75;2.65;;;42.80;40.50;;;;;;4959005;28;20217;-75
2021/08/13 10:59:42;;;;;;;2.85;2.65;;;43.10;39.90;;;;;;4958418;28;20274;-75
2021/08/13 11:02:12;;;;;;;2.78;2.65;;;43.30;40.10;;;;;;4959471;28;20194;-74
2021/08/13 11:04:40;;;;;;;5.15;2.90;;;43.30;40.50;;;;;;4958467;28;20193;-74
2021/08/13 11:07:06;;;;;;;3.30;3.00;;;43.50;39.50;;;;;;4957599;28;20189;-75
2021/08/13 11:09:33;;;;;;;3.22;2.80;;;43.60;39.90;;;;;;4960075;28;20255;-74
2021/08/13 11:12:16;;;;;;;2.85;2.75;;;43.10;40.50;;;;;;4961230;28;20186;-75
2021/08/13 11:14:47;;;;;;;2.83;2.72;;;43.00;39.50;;;;;;4960294;28;20190;-74
2021/08/13 11:17:37;;;;;;;3.30;3.08;;;43.10;40.60;;;;;;4953448;28;20213;-74
2021/08/13 11:20:05;;;;;;;2.92;2.78;;;43.50;39.90;;;;;;4960199;28;20623;-75
2021/08/13 11:22:35;;;;;;;2.72;2.72;;;44.00;40.40;;;;;;4959153;28;20249;-75
2021/08/13 11:25:07;;;;;;;2.85;2.75;;;44.60;40.70;;;;;;4959102;28;20192;-74
2021/08/13 11:27:33;;;;;;;2.60;2.50;;;45.10;39.60;;;;;;4959535;28;20275;-74
2021/08/13 11:29:59;;;;;;;2.28;2.28;;;45.40;40.20;;;;;;4956413;28;20210;-74
2021/08/13 11:32:34;;;;;;;3.10;3.00;;;45.60;40.10;;;;;;4958074;28;20715;-74
2021/08/13 11:35:07;;;;;;;3.30;3.10;;;45.70;39.60;;;;;;4958451;28;20580;-74
2021/08/13 11:37:37;;;;;;;4.50;2.72;;;46.00;40.00;;;;;;4957200;28;20213;-75
2021/08/13 11:40:12;;;;;;;3.15;3.05;;;46.30;39.10;;;;;;4960116;28;20205;-74
2021/08/13 11:42:38;;;;;;;2.88;2.78;;;46.70;38.60;;;;;;4955387;28;20209;-75
2021/08/13 11:45:07;;;;;;;2.70;2.63;;;47.00;38.70;;;;;;4958946;28;20186;-75
2021/08/13 11:47:33;;;;;;;3.00;2.95;;;47.30;37.80;;;;;;4952182;28;20182;-75
2021/08/13 11:50:06;;;;;;;2.85;2.85;;;46.90;36.90;;;;;;4957032;28;20683;-75
2021/08/13 11:52:35;;;;;;;6.05;3.00;;;46.50;36.80;;;;;;4954490;28;20276;-75
2021/08/13 11:55:17;;;;;;;2.80;2.80;;;46.20;39.40;;;;;;4959142;28;20178;-75
2021/08/13 11:57:43;;;;;;;2.88;2.78;;;46.30;38.40;;;;;;4958422;28;20735;-75
2021/08/13 12:00:20;;;;;;;2.92;2.90;;;46.60;39.90;;;;;;4954781;28;20185;-75
2021/08/13 12:02:47;;;;;;;3.08;2.88;;;46.80;38.40;;;;;;4969474;28;20275;-75
2021/08/13 12:05:13;;;;;;;2.90;2.75;;;46.80;38.70;;;;;;4955245;28;20193;-75
2021/08/13 12:07:41;;;;;;;2.70;2.60;;;47.10;38.90;;;;;;4954908;28;20194;-74
2021/08/13 12:10:20;;;;;;;3.08;2.88;;;47.30;39.10;;;;;;4954621;28;20181;-75
2021/08/13 12:12:46;;;;;;;2.90;2.80;;;47.50;37.40;;;;;;4957999;28;20189;-75
2021/08/13 12:15:13;;;;;;;2.97;2.88;;;47.70;37.00;;;;;;4959831;28;20917;-75
2021/08/13 12:17:39;;;;;;;2.63;2.63;;;47.80;38.00;;;;;;4958547;28;20349;-75
2021/08/13 12:20:08;;;;;;;2.90;2.80;;;47.90;37.20;;;;;;4954569;28;20654;-75
2021/08/13 12:22:40;;;;;;;2.22;2.15;;;47.60;37.70;;;;;;4954100;28;20243;-75
2021/08/13 12:25:08;;;;;;;2.88;2.88;;;47.40;37.00;;;;;;4956552;28;20205;-75
2021/08/13 12:27:37;;;;;;;2.50;2.47;;;47.00;39.00;;;;;;4953244;28;20238;-75
2021/08/13 12:30:14;;;;;;;3.28;3.20;;;45.90;39.50;;;;;;4955740;28;20261;-76
2021/08/13 12:32:41;;;;;;;2.90;2.75;;;44.90;39.70;;;;;;4953773;28;20269;-75
2021/08/13 12:35:10;;;;;;;2.80;2.80;;;43.90;40.60;;;;;;4954137;28;20178;-75
2021/08/13 12:37:40;;;;;;;2.92;2.88;;;43.50;40.70;;;;;;4971750;28;20229;-74
2021/08/13 12:40:08;;;;;;;3.17;3.08;;;43.50;40.30;;;;;;4957014;28;20208;-75
2021/08/13 12:42:34;;;;;;;3.40;2.53;;;43.70;40.70;;;;;;4952559;28;20269;-75
2021/08/13 12:45:01;;;;;;;3.20;3.10;;;44.00;40.70;;;;;;4960375;28;20179;-74
2021/08/13 12:47:28;;;;;;;3.30;3.20;;;44.30;40.60;;;;;;4957153;28;20196;-74
2021/08/13 12:49:54;;;;;;;3.42;3.33;;;44.60;40.20;;;;;;4955230;28;20190;-74
2021/08/13 12:52:26;;;;;;;4.00;3.22;;;44.90;40.40;;;;;;4953576;28;20178;-74